M I D A S
Marine Information and Data Acquisition System
Tripno 1024 of the Zeeleeuw from 2006-01-17 09:22:20 to 2006-01-17 12:20:56
Back to CruiseResearch ActivitiesStationsMapUnderway DataData graphs

EquipmentUnitsComment
TimeDGPSUTC
LatitudeDGPSDM.mWGS84
LongitudeDGPSDM.mWGS84
HeadingGyrodeg 
SOGDGPSknotsSpeed over ground
COGDGPSdegCourse over ground
DepthEcho soundermeters200 kHz
Missing or incorrect values are displayed as -999
Navigation data collected by the RV Zeeleeuw from 2006-01-17 09:22:37 to 2006-01-17 12:33:39
Time Latitude Longitude Heading SOG COG Depth
2006-01-17 09:23:44 51°13.619 2°56.032 111.4 3.7 289 -999
2006-01-17 09:24:44 51°13.644 2°55.925 115.8 4.5 293 -999
2006-01-17 09:25:43 51°13.672 2°55.821 112.6 4.2 292 6.4
2006-01-17 09:26:43 51°13.686 2°55.74 92.2 1.4 280 12.1
2006-01-17 09:27:43 51°13.706 2°55.752 27.5 2.7 14 12.6
2006-01-17 09:28:43 51°13.763 2°55.705 325.6 4.9 321 8.4
2006-01-17 09:29:43 51°13.849 2°55.621 337.1 6.7 333 9.1
2006-01-17 09:30:43 51°13.948 2°55.546 340.9 6.6 335 9.1
2006-01-17 09:31:43 51°14.05 2°55.475 341.3 6.9 336 9
2006-01-17 09:32:43 51°14.161 2°55.386 335.5 8.3 329 50.9
2006-01-17 09:33:43 51°14.281 2°55.227 318.2 9.9 312 9.2
2006-01-17 09:34:42 51°14.397 2°55.023 320.4 11 314 9.4
2006-01-17 09:35:43 51°14.557 2°54.87 347.9 11.2 338 8.6
2006-01-17 09:36:43 51°14.748 2°54.808 1.9 12 351 8.3
2006-01-17 09:37:42 51°14.941 2°54.732 355.3 12.1 345 7.7
2006-01-17 09:38:43 51°15.139 2°54.657 359.5 11.8 351 7.3
2006-01-17 09:39:42 51°15.331 2°54.595 354.2 12.2 343 7.7
2006-01-17 09:40:43 51°15.532 2°54.517 0.5 12.3 349 8.5
2006-01-17 09:41:43 51°15.731 2°54.445 357.7 12.3 346 9.2
2006-01-17 09:42:42 51°15.922 2°54.376 358.9 12 348 9.8
2006-01-17 09:43:42 51°16.117 2°54.312 359.5 10.6 349 10.4
2006-01-17 09:44:43 51°16.204 2°54.35 50.8 3 43 10.8
2006-01-17 09:45:42 51°16.218 2°54.359 37 0.5 10 10.7
2006-01-17 09:46:42 51°16.225 2°54.357 29.1 0.4 335 10.9
2006-01-17 09:47:43 51°16.229 2°54.35 20.5 0.3 315 10.8
2006-01-17 09:48:43 51°16.232 2°54.338 10.2 0.5 289 10.8
2006-01-17 09:49:44 51°16.233 2°54.323 358.3 0.6 266 10.7
2006-01-17 09:50:43 51°16.23 2°54.305 347.5 0.8 253 10.8
2006-01-17 09:51:42 51°16.226 2°54.287 337.7 0.6 245 10.8
2006-01-17 09:52:43 51°16.22 2°54.27 332.4 0.8 234 10.8
2006-01-17 09:53:43 51°16.212 2°54.256 330.2 0.7 225 10.6
2006-01-17 09:54:43 51°16.206 2°54.242 332.1 0.7 225 10.8
2006-01-17 09:55:43 51°16.197 2°54.229 332 0.7 222 10.8
2006-01-17 09:56:43 51°16.188 2°54.219 333.4 0.6 221 10.8
2006-01-17 09:57:42 51°16.181 2°54.209 336.8 0.7 215 10.9
2006-01-17 09:58:43 51°16.171 2°54.199 341.4 0.7 218 10.8
2006-01-17 09:59:43 51°16.161 2°54.189 345.4 0.7 216 10.9
2006-01-17 10:00:42 51°16.152 2°54.179 347.6 0.7 210 10.8
2006-01-17 10:01:43 51°16.142 2°54.168 349 0.7 216 10.8
2006-01-17 10:02:42 51°16.134 2°54.158 346.8 0.5 215 10.8
2006-01-17 10:03:43 51°16.126 2°54.147 342.9 0.7 222 10.8
2006-01-17 10:04:43 51°16.119 2°54.136 339.2 0.6 226 10.9
2006-01-17 10:05:42 51°16.112 2°54.125 335.7 0.6 226 10.8
2006-01-17 10:06:43 51°16.105 2°54.114 334.5 0.6 220 10.8
2006-01-17 10:07:43 51°16.098 2°54.104 332.9 0.5 223 10.9
2006-01-17 10:08:43 51°16.119 2°54.086 13 2.8 2 10.8
2006-01-17 10:09:43 51°16.168 2°54.148 48.1 4.6 45 10.9
2006-01-17 10:10:43 51°16.235 2°54.226 40.8 4.6 33 10.9
2006-01-17 10:11:43 51°16.281 2°54.276 43.8 2.6 37 10.9
2006-01-17 10:12:43 51°16.3 2°54.314 61.4 1.5 62 11
2006-01-17 10:13:43 51°16.304 2°54.342 72.1 1 85 11
2006-01-17 10:14:43 51°16.301 2°54.364 81.5 0.7 107 10.9
2006-01-17 10:15:42 51°16.294 2°54.379 90.2 0.7 136 11
2006-01-17 10:16:43 51°16.286 2°54.39 98 0.7 151 11.1
2006-01-17 10:17:43 51°16.275 2°54.397 108.1 0.8 163 11.1
2006-01-17 10:18:42 51°16.263 2°54.401 118.6 0.7 172 11.1
2006-01-17 10:19:43 51°16.251 2°54.401 127.2 0.7 182 11.1
2006-01-17 10:20:43 51°16.24 2°54.399 133.5 0.6 182 11.1
2006-01-17 10:21:43 51°16.229 2°54.396 139.4 0.7 194 11.1
2006-01-17 10:22:43 51°16.22 2°54.392 141.5 0.6 197 11.2
2006-01-17 10:23:43 51°16.21 2°54.387 144.9 0.6 200 11.1
2006-01-17 10:24:43 51°16.201 2°54.382 149.3 0.6 203 11.2
2006-01-17 10:25:42 51°16.193 2°54.377 151.2 0.5 199 11.2
2006-01-17 10:26:43 51°16.184 2°54.372 150.8 0.6 199 11.1
2006-01-17 10:27:43 51°16.176 2°54.368 151.2 0.5 194 11.1
2006-01-17 10:28:43 51°16.167 2°54.364 151.3 0.5 197 11.2
2006-01-17 10:29:43 51°16.159 2°54.361 150.7 0.5 196 11.2
2006-01-17 10:30:43 51°16.151 2°54.358 151.6 0.5 193 11.2
2006-01-17 10:31:43 51°16.142 2°54.354 152.5 0.5 195 11.2
2006-01-17 10:32:42 51°16.133 2°54.351 154.1 0.6 192 11.2
2006-01-17 10:33:43 51°16.123 2°54.348 155.9 0.6 197 11.1
2006-01-17 10:34:43 51°16.114 2°54.345 154.9 0.5 187 11.3
2006-01-17 10:35:43 51°16.105 2°54.341 153.8 0.5 186 11.2
2006-01-17 10:36:42 51°16.077 2°54.341 182.1 3.2 190 11.1
2006-01-17 10:37:43 51°16.03 2°54.267 254.4 4.4 251 11.1
2006-01-17 10:38:43 51°16.054 2°54.174 338.2 3.7 333 11.1
2006-01-17 10:39:43 51°16.107 2°54.206 44.2 4 36 11.3
2006-01-17 10:40:43 51°16.178 2°54.261 27.4 5.2 19 11.3
2006-01-17 10:41:43 51°16.265 2°54.308 28.1 5.6 22 11.3
2006-01-17 10:42:43 51°16.316 2°54.347 49.8 1.2 51 11.3
2006-01-17 10:43:43 51°16.316 2°54.363 83.7 0.7 111 11.4
2006-01-17 10:44:43 51°16.31 2°54.379 97.2 0.7 127 11.3
2006-01-17 10:45:43 51°16.302 2°54.392 109.3 0.6 136 11.4
2006-01-17 10:46:43 51°16.293 2°54.401 120 0.6 153 11.4
2006-01-17 10:47:43 51°16.283 2°54.407 129.1 0.6 162 11.4
2006-01-17 10:48:43 51°16.274 2°54.409 138.6 0.6 179 11.5
2006-01-17 10:49:43 51°16.265 2°54.409 147.3 0.5 181 11.5
2006-01-17 10:50:43 51°16.256 2°54.409 154.1 0.5 180 11.5
2006-01-17 10:51:43 51°16.248 2°54.409 158.5 0.5 179 11.5
2006-01-17 10:52:43 51°16.24 2°54.411 157.6 0.5 178 11.5
2006-01-17 10:53:43 51°16.233 2°54.412 157.8 0.4 164 11.5
2006-01-17 10:54:43 51°16.224 2°54.414 156.9 0.5 170 11.5
2006-01-17 10:55:43 51°16.217 2°54.416 157.2 0.4 158 11.6
2006-01-17 10:56:43 51°16.209 2°54.418 156.5 0.4 166 11.5
2006-01-17 10:57:43 51°16.201 2°54.422 156.1 0.9 162 11.6
2006-01-17 10:58:43 51°16.158 2°54.424 192.9 4.2 195 11.4
2006-01-17 10:59:42 51°16.108 2°54.326 262.5 6.3 263 11.5
2006-01-17 11:00:43 51°16.188 2°54.196 342.7 8.1 328 11.3
2006-01-17 11:01:43 51°16.297 2°54.026 322.5 9.6 314 11.6
2006-01-17 11:02:43 51°16.415 2°53.849 326.6 9.8 319 12
2006-01-17 11:03:43 51°16.534 2°53.675 323.6 9.6 317 11.9
2006-01-17 11:04:43 51°16.656 2°53.508 327.2 9.7 320 11.8
2006-01-17 11:05:43 51°16.774 2°53.336 324.5 9.6 317 11.5
2006-01-17 11:06:43 51°16.89 2°53.163 324.6 9.5 317 8.7
2006-01-17 11:07:43 51°17.006 2°52.993 324.9 9.5 317 9.1
2006-01-17 11:08:42 51°17.119 2°52.821 323.4 9.5 315 10.2
2006-01-17 11:09:43 51°17.234 2°52.644 323.8 9.5 316 10.1
2006-01-17 11:10:43 51°17.348 2°52.47 325.8 9.5 317 10.6
2006-01-17 11:11:43 51°17.467 2°52.303 327.6 9.5 319 10.9
2006-01-17 11:12:43 51°17.585 2°52.136 327.9 9.6 319 10.9
2006-01-17 11:13:43 51°17.704 2°51.968 327.3 9.5 318 10.8
2006-01-17 11:14:43 51°17.827 2°51.811 331.6 9.5 322 10.6
2006-01-17 11:15:43 51°17.951 2°51.655 330.6 9.5 322 11
2006-01-17 11:16:43 51°18.077 2°51.499 331.1 9.6 322 11.7
2006-01-17 11:17:42 51°18.201 2°51.347 332.4 9.5 322 11.8
2006-01-17 11:18:43 51°18.306 2°51.216 329.1 6 318 13.5
2006-01-17 11:19:42 51°18.363 2°51.131 330.8 4 318 13.9
2006-01-17 11:20:43 51°18.409 2°51.075 341.1 3 327 14.1
2006-01-17 11:21:43 51°18.444 2°51.038 343.3 2.2 325 14.3
2006-01-17 11:22:43 51°18.47 2°51.01 348.4 1.6 327 14.3
2006-01-17 11:23:43 51°18.49 2°50.988 354 1.2 329 14.5
2006-01-17 11:24:42 51°18.504 2°50.971 349.8 0.9 316 14.7
2006-01-17 11:25:43 51°18.51 2°50.953 340 0.8 282 14.7
2006-01-17 11:26:43 51°18.512 2°50.936 333.1 0.5 269 14.6
2006-01-17 11:27:43 51°18.51 2°50.922 329.5 0.6 249 14.8
2006-01-17 11:28:43 51°18.507 2°50.911 328.2 0.5 233 14.7
2006-01-17 11:29:43 51°18.502 2°50.902 329.5 0.4 225 14.8
2006-01-17 11:30:43 51°18.496 2°50.893 327.4 0.5 215 14.8
2006-01-17 11:31:43 51°18.489 2°50.886 332.8 0.5 212 14.8
2006-01-17 11:32:43 51°18.481 2°50.88 337.4 0.4 204 14.9
2006-01-17 11:33:43 51°18.473 2°50.876 342.5 0.6 206 14.9
2006-01-17 11:34:43 51°18.466 2°50.872 345.7 0.4 184 14.9
2006-01-17 11:35:43 51°18.459 2°50.869 349.1 0.5 188 14.9
2006-01-17 11:36:43 51°18.451 2°50.865 350.7 0.5 206 14.9
2006-01-17 11:37:43 51°18.445 2°50.862 350.8 0.4 202 14.9
2006-01-17 11:38:43 51°18.438 2°50.859 352.7 0.4 196 14.8
2006-01-17 11:39:43 51°18.431 2°50.857 354.5 0.5 194 14.8
2006-01-17 11:40:43 51°18.426 2°50.854 355 0.3 189 15.1
2006-01-17 11:41:43 51°18.421 2°50.852 356.3 0.2 204 15
2006-01-17 11:42:43 51°18.417 2°50.85 354.9 0.4 213 14.9
2006-01-17 11:43:43 51°18.414 2°50.848 352.1 0.2 200 14.9
2006-01-17 11:44:43 51°18.411 2°50.846 349.8 0.2 133 14.9
2006-01-17 11:45:43 51°18.408 2°50.845 349.6 0.2 191 14.9
2006-01-17 11:46:43 51°18.405 2°50.844 349.3 0.1 165 15
2006-01-17 11:47:43 51°18.404 2°50.844 349.7 0.2 120 14.9
2006-01-17 11:48:43 51°18.403 2°50.845 350.2 0.1 118 14.9
2006-01-17 11:49:43 51°18.403 2°50.846 350.1 0.1 89 15.2
2006-01-17 11:50:43 51°18.402 2°50.848 349.5 0.1 104 15.1
2006-01-17 11:51:43 51°18.401 2°50.85 347.7 0.1 133 15.1
2006-01-17 11:52:43 51°18.401 2°50.851 343.7 0.1 94 15.2
2006-01-17 11:53:43 51°18.402 2°50.853 344 0.1 19 15.1
2006-01-17 11:54:43 51°18.402 2°50.856 344 0.2 76 15.1
2006-01-17 11:55:43 51°18.403 2°50.861 345.1 0.1 82 15.2
2006-01-17 11:56:43 51°18.412 2°50.863 350.5 1.7 357 15.2
2006-01-17 11:57:43 51°18.473 2°50.962 72.2 7.8 76 15.3
2006-01-17 11:58:43 51°18.402 2°51.162 146.4 11.1 149 14.7
2006-01-17 11:59:43 51°18.223 2°51.331 149.8 12.9 146 13.7
2006-01-17 12:00:44 51°18.039 2°51.512 150.9 12.8 149 12.6
2006-01-17 12:01:43 51°17.861 2°51.691 151 12.7 147 11.7
2006-01-17 12:02:44 51°17.677 2°51.875 151 12.9 147 11.7
2006-01-17 12:03:44 51°17.487 2°52.041 155 12.9 155 12
2006-01-17 12:04:44 51°17.294 2°52.199 155.9 13.1 153 12
2006-01-17 12:05:44 51°17.101 2°52.361 156.7 13.1 153 11.6
2006-01-17 12:06:43 51°16.91 2°52.523 156.8 13.2 154 11.6
2006-01-17 12:07:43 51°16.716 2°52.691 156.8 13.3 152 12
2006-01-17 12:08:43 51°16.522 2°52.863 158.7 13.3 151 13.3
2006-01-17 12:09:44 51°16.326 2°53.035 159.2 13.4 151 13.6
2006-01-17 12:10:44 51°16.133 2°53.194 159.5 13.1 152 13.5
2006-01-17 12:11:44 51°15.942 2°53.357 159.3 13 151 13.2
2006-01-17 12:12:44 51°15.751 2°53.513 159.3 12.9 152 12.7
2006-01-17 12:13:44 51°15.562 2°53.673 159.1 12.9 151 12.3
2006-01-17 12:14:44 51°15.372 2°53.829 159.9 12.9 154 11.8
2006-01-17 12:15:43 51°15.185 2°53.981 159.7 12.8 151 11.1
2006-01-17 12:16:44 51°14.994 2°54.144 158.9 12.8 152 10.6
2006-01-17 12:17:44 51°14.809 2°54.308 158.2 12 148 11.2
2006-01-17 12:18:44 51°14.658 2°54.501 142.5 11.6 131 11.9
2006-01-17 12:19:43 51°14.532 2°54.729 143.3 11.6 132 12.1
2006-01-17 12:20:44 51°14.41 2°54.975 133.9 11.7 125 12.2
2006-01-17 12:21:44 51°14.286 2°55.207 138.3 10.5 134 12.4
2006-01-17 12:22:44 51°14.181 2°55.375 143.5 8.2 141 -999
2006-01-17 12:23:43 51°14.075 2°55.464 161 6.8 157 12.2
2006-01-17 12:24:44 51°13.976 2°55.534 159.5 6.2 155 12
2006-01-17 12:25:44 51°13.884 2°55.597 159.8 5.6 156 12.1
2006-01-17 12:26:44 51°13.806 2°55.656 156.7 5 153 12.4
2006-01-17 12:27:44 51°13.741 2°55.736 137.7 4.9 134 11.5
2006-01-17 12:28:44 51°13.69 2°55.837 129.9 4.9 125 11.1
2006-01-17 12:29:44 51°13.645 2°55.943 127.2 4.5 123 11.2
2006-01-17 12:30:43 51°13.615 2°56.029 116.8 3.2 112 11.7
2006-01-17 12:31:44 51°13.602 2°56.082 117.3 1.2 110 10.3
2006-01-17 12:32:44 51°13.599 2°56.091 126.2 0.4 128 8.7